createdAt,value
2023-03-26T00:01:05.724Z,9.13
2023-03-26T00:03:33.653Z,6.07
2023-03-26T00:06:13.526Z,7.17
2023-03-26T00:08:42.022Z,8.40
2023-03-26T00:11:10.101Z,4.40
2023-03-26T00:13:37.350Z,11.07
2023-03-26T00:16:04.978Z,6.87
2023-03-26T00:18:34.979Z,6.63
2023-03-26T00:21:03.587Z,6.23
2023-03-26T00:23:31.664Z,8.47
2023-03-26T00:25:58.981Z,9.57
2023-03-26T00:28:26.399Z,9.63
2023-03-26T00:31:01.277Z,8.07
2023-03-26T00:33:28.861Z,8.10
2023-03-26T00:35:58.872Z,9.20
2023-03-26T00:38:26.827Z,11.63
2023-03-26T00:40:54.414Z,10.40
2023-03-26T00:43:22.700Z,15.80
2023-03-26T00:45:51.126Z,15.77
2023-03-26T00:48:18.794Z,10.63
2023-03-26T00:50:46.999Z,15.27
2023-03-26T00:53:15.035Z,9.93
2023-03-26T00:55:42.795Z,6.30
2023-03-26T00:58:10.709Z,9.23
2023-03-26T01:00:40.270Z,9.93
2023-03-26T01:03:07.652Z,9.10
2023-03-26T01:05:34.902Z,13.67
2023-03-26T01:08:15.170Z,12.33
2023-03-26T01:10:43.590Z,9.17
2023-03-26T01:13:10.903Z,11.27
2023-03-26T01:15:39.120Z,5.43
2023-03-26T01:18:09.836Z,5.23
2023-03-26T01:20:39.838Z,7.67
2023-03-26T01:23:07.445Z,5.63
2023-03-26T01:25:39.392Z,4.97
2023-03-26T01:28:08.900Z,4.57
2023-03-26T01:30:42.403Z,6.63
2023-03-26T01:33:27.873Z,4.77
2023-03-26T01:35:58.924Z,4.17
2023-03-26T01:38:35.583Z,7.27
2023-03-26T01:41:09.795Z,5.77
2023-03-26T01:43:55.965Z,5.97
2023-03-26T01:46:25.648Z,7.93
2023-03-26T01:48:52.996Z,5.07
2023-03-26T01:51:28.842Z,7.67
2023-03-26T01:53:56.386Z,8.87
2023-03-26T01:56:38.203Z,5.73
2023-03-26T01:59:17.731Z,4.43
2023-03-26T02:01:54.896Z,3.53
2023-03-26T02:04:32.313Z,5.63
2023-03-26T02:07:18.274Z,5.07
2023-03-26T02:09:48.294Z,5.10
2023-03-26T02:12:15.918Z,7.77
2023-03-26T02:14:43.799Z,5.80
2023-03-26T02:17:11.685Z,4.83
2023-03-26T02:19:42.305Z,5.83
2023-03-26T02:22:15.752Z,4.60
2023-03-26T02:24:43.724Z,4.93
2023-03-26T02:27:12.364Z,5.17
2023-03-26T02:29:42.638Z,7.90
2023-03-26T02:32:13.606Z,3.23
2023-03-26T02:34:41.551Z,2.33
2023-03-26T02:37:09.133Z,4.83
2023-03-26T02:39:36.614Z,3.07
2023-03-26T02:42:03.831Z,5.50
2023-03-26T02:44:31.226Z,3.97
2023-03-26T02:46:58.464Z,3.33
2023-03-26T02:49:26.177Z,8.07
2023-03-26T02:51:56.265Z,5.07
2023-03-26T02:54:23.828Z,4.03
2023-03-26T02:56:51.375Z,4.57
2023-03-26T02:59:18.737Z,2.57
2023-03-26T03:01:45.922Z,4.27
2023-03-26T03:04:13.401Z,4.93
2023-03-26T03:06:40.900Z,3.07
2023-03-26T03:09:08.848Z,6.07
2023-03-26T03:11:40.753Z,3.90
2023-03-26T03:14:08.222Z,4.40
2023-03-26T03:16:35.568Z,5.67
2023-03-26T03:19:02.968Z,6.50
2023-03-26T03:21:30.247Z,3.60
2023-03-26T03:23:59.914Z,4.87
2023-03-26T03:26:29.792Z,6.73
2023-03-26T03:28:58.223Z,5.47
2023-03-26T03:31:26.631Z,8.00
2023-03-26T03:33:53.936Z,6.07
2023-03-26T03:36:23.061Z,5.17
2023-03-26T03:38:51.200Z,4.97
2023-03-26T03:41:18.817Z,4.57
2023-03-26T03:43:47.047Z,5.83
2023-03-26T03:46:14.389Z,6.53
2023-03-26T03:48:43.574Z,5.63
2023-03-26T03:51:10.733Z,5.40
2023-03-26T03:53:40.572Z,6.07
2023-03-26T03:56:10.548Z,7.20
2023-03-26T03:58:37.931Z,5.53
2023-03-26T04:01:05.152Z,7.50
2023-03-26T04:03:38.513Z,4.17
2023-03-26T04:06:11.136Z,5.33
2023-03-26T04:08:38.596Z,5.80
2023-03-26T04:11:06.439Z,3.93
2023-03-26T04:13:33.668Z,3.67
2023-03-26T04:16:01.168Z,2.67
2023-03-26T04:18:30.309Z,3.97
2023-03-26T04:21:02.395Z,5.03
2023-03-26T04:23:30.202Z,2.67
2023-03-26T04:25:58.269Z,4.57
2023-03-26T04:28:43.276Z,3.23
2023-03-26T04:31:11.933Z,3.60
2023-03-26T04:33:39.360Z,5.47
2023-03-26T04:36:07.077Z,5.63
2023-03-26T04:38:38.203Z,4.33
2023-03-26T04:41:07.895Z,4.77
2023-03-26T04:43:47.099Z,5.40
2023-03-26T04:46:14.835Z,4.33
2023-03-26T04:48:42.126Z,2.90
2023-03-26T04:51:10.227Z,3.93
2023-03-26T04:53:37.517Z,3.50
2023-03-26T04:56:09.905Z,2.47
2023-03-26T04:58:37.093Z,3.77
2023-03-26T05:01:10.571Z,8.50
2023-03-26T05:03:39.264Z,5.93
2023-03-26T05:06:06.586Z,6.13
2023-03-26T05:08:34.023Z,5.60
2023-03-26T05:11:01.801Z,2.07
2023-03-26T05:13:30.780Z,3.20
2023-03-26T05:15:58.177Z,2.00
2023-03-26T05:18:25.411Z,1.83
2023-03-26T05:20:53.326Z,4.10
2023-03-26T05:23:20.953Z,1.63
2023-03-26T05:25:48.318Z,8.13
2023-03-26T05:28:15.946Z,2.40
2023-03-26T05:30:43.674Z,2.07
2023-03-26T05:33:10.931Z,2.50
2023-03-26T05:35:38.196Z,2.67
2023-03-26T05:38:06.512Z,1.93
2023-03-26T05:40:33.699Z,1.97
2023-03-26T05:43:00.959Z,4.33
2023-03-26T05:45:28.253Z,2.27
2023-03-26T05:47:56.439Z,2.53
2023-03-26T05:50:23.993Z,3.70
2023-03-26T05:52:51.262Z,6.30
2023-03-26T05:55:20.174Z,2.80
2023-03-26T05:57:47.463Z,2.90
2023-03-26T06:00:15.137Z,4.60
2023-03-26T06:02:42.921Z,5.10
2023-03-26T06:05:10.476Z,1.87
2023-03-26T06:07:37.891Z,5.27
2023-03-26T06:10:05.523Z,4.33
2023-03-26T06:12:33.133Z,4.23
2023-03-26T06:15:00.517Z,3.33
2023-03-26T06:17:27.807Z,3.27
2023-03-26T06:19:55.011Z,4.23
2023-03-26T06:22:22.311Z,2.67
2023-03-26T06:24:50.268Z,3.43
2023-03-26T06:27:17.450Z,3.43
2023-03-26T06:29:44.790Z,2.73
2023-03-26T06:32:19.747Z,2.07
2023-03-26T06:34:47.793Z,3.17
2023-03-26T06:37:14.995Z,3.47
2023-03-26T06:39:42.356Z,2.33
2023-03-26T06:42:09.549Z,5.13
2023-03-26T06:44:36.765Z,2.80
2023-03-26T06:47:04.021Z,1.97
2023-03-26T06:49:31.501Z,2.10
2023-03-26T06:51:58.707Z,2.03
2023-03-26T06:54:27.594Z,2.13
2023-03-26T06:56:55.029Z,2.07
2023-03-26T06:59:22.790Z,1.80
2023-03-26T07:01:50.063Z,2.63
2023-03-26T07:04:17.813Z,3.80
2023-03-26T07:06:45.116Z,4.30
2023-03-26T07:09:12.351Z,7.33
2023-03-26T07:11:39.653Z,3.73
2023-03-26T07:14:06.909Z,6.43
2023-03-26T07:16:34.114Z,6.77
2023-03-26T07:19:01.322Z,5.13
2023-03-26T07:21:28.740Z,5.33
2023-03-26T07:23:56.667Z,3.77
2023-03-26T07:26:27.203Z,2.70
2023-03-26T07:29:14.649Z,2.83
2023-03-26T07:31:42.248Z,1.63
2023-03-26T07:34:18.071Z,3.00
2023-03-26T07:37:04.033Z,4.87
2023-03-26T07:39:44.564Z,2.93
2023-03-26T07:42:25.549Z,2.97
2023-03-26T07:44:58.648Z,2.73
2023-03-26T07:47:30.269Z,2.87
2023-03-26T07:49:57.941Z,2.87
2023-03-26T07:52:26.035Z,3.00
2023-03-26T07:54:53.865Z,2.40
2023-03-26T07:57:33.469Z,6.90
2023-03-26T08:00:00.872Z,2.40
2023-03-26T08:02:37.119Z,3.37
2023-03-26T08:05:22.962Z,3.37
2023-03-26T08:08:08.912Z,2.20
2023-03-26T08:10:41.924Z,5.20
2023-03-26T08:13:27.872Z,3.67
2023-03-26T08:16:09.508Z,3.57
2023-03-26T08:18:57.307Z,6.70
2023-03-26T08:21:27.264Z,4.43
2023-03-26T08:24:13.441Z,2.73
2023-03-26T08:26:47.321Z,3.67
2023-03-26T08:29:15.347Z,4.23
2023-03-26T08:31:44.080Z,4.17
2023-03-26T08:34:12.719Z,3.63
2023-03-26T08:36:40.197Z,5.83
2023-03-26T08:39:08.112Z,5.13
2023-03-26T08:41:53.864Z,2.63
2023-03-26T08:44:21.187Z,2.77
2023-03-26T08:46:48.969Z,6.10
2023-03-26T08:49:39.233Z,2.57
2023-03-26T08:52:25.645Z,2.97
2023-03-26T08:54:57.237Z,3.67
2023-03-26T08:57:40.453Z,3.27
2023-03-26T09:00:16.682Z,3.83
2023-03-26T09:02:56.164Z,2.20
2023-03-26T09:05:41.910Z,5.27
2023-03-26T09:08:29.862Z,4.10
2023-03-26T09:11:03.363Z,2.27
2023-03-26T09:13:33.509Z,1.93
2023-03-26T09:16:19.318Z,2.87
2023-03-26T09:18:53.691Z,1.87
2023-03-26T09:21:39.187Z,2.10
2023-03-26T09:24:06.417Z,1.57
2023-03-26T09:26:36.718Z,1.63
2023-03-26T09:29:06.694Z,2.93
2023-03-26T09:31:57.125Z,4.33
2023-03-26T09:34:30.671Z,1.60
2023-03-26T09:37:08.441Z,3.63
2023-03-26T09:39:50.839Z,4.77
2023-03-26T09:42:24.432Z,3.47
2023-03-26T09:45:10.709Z,1.63
2023-03-26T09:47:44.722Z,1.80
2023-03-26T09:50:21.667Z,3.73
2023-03-26T09:52:51.736Z,3.57
2023-03-26T09:55:32.355Z,2.33
2023-03-26T09:58:22.359Z,3.33
2023-03-26T10:01:05.814Z,4.80
2023-03-26T10:03:39.378Z,3.50
2023-03-26T10:06:39.231Z,2.97
2023-03-26T10:09:06.630Z,5.47
2023-03-26T10:11:40.459Z,3.27
2023-03-26T10:14:07.799Z,2.93
2023-03-26T10:16:47.056Z,1.93
2023-03-26T10:19:20.660Z,5.17
2023-03-26T10:21:50.968Z,1.87
2023-03-26T10:24:37.913Z,2.33
2023-03-26T10:27:16.414Z,3.97
2023-03-26T10:30:02.403Z,4.30
2023-03-26T10:32:34.539Z,2.23
2023-03-26T10:35:20.521Z,1.77
2023-03-26T10:38:03.495Z,1.40
2023-03-26T10:40:52.253Z,2.97
2023-03-26T10:43:36.332Z,2.93
2023-03-26T10:46:09.948Z,1.23
2023-03-26T10:48:56.622Z,1.93
2023-03-26T10:51:43.797Z,3.53
2023-03-26T10:54:29.629Z,1.30
2023-03-26T10:57:01.715Z,1.33
2023-03-26T10:59:30.692Z,1.23
2023-03-26T11:02:16.806Z,1.83
2023-03-26T11:04:55.534Z,1.63
2023-03-26T11:07:45.037Z,2.07
2023-03-26T11:10:12.672Z,2.47
2023-03-26T11:12:45.890Z,1.73
2023-03-26T11:15:13.157Z,2.90
2023-03-26T11:17:49.697Z,8.17
2023-03-26T11:20:23.263Z,3.13
2023-03-26T11:22:50.846Z,2.93
2023-03-26T11:25:33.466Z,2.70
2023-03-26T11:28:09.533Z,4.23
2023-03-26T11:30:51.528Z,5.73
2023-03-26T11:33:32.600Z,2.93
2023-03-26T11:36:03.700Z,3.43
2023-03-26T11:38:45.586Z,3.47
2023-03-26T11:41:22.829Z,4.77
2023-03-26T11:43:57.272Z,5.47
2023-03-26T11:46:26.105Z,7.33
2023-03-26T11:48:53.498Z,3.93
2023-03-26T11:51:33.879Z,4.50
2023-03-26T11:54:03.138Z,8.70
2023-03-26T11:56:35.970Z,5.17
2023-03-26T11:59:06.351Z,6.67
2023-03-26T12:01:44.168Z,6.93
2023-03-26T12:04:17.084Z,12.33
2023-03-26T12:06:52.992Z,13.10
2023-03-26T12:09:21.028Z,9.40
2023-03-26T12:11:49.361Z,4.97
2023-03-26T12:14:21.894Z,3.60
2023-03-26T12:17:08.013Z,2.70
2023-03-26T12:19:37.149Z,6.17
2023-03-26T12:22:04.365Z,4.90
2023-03-26T12:24:33.550Z,2.30
2023-03-26T12:27:20.968Z,3.57
2023-03-26T12:30:03.702Z,2.93
2023-03-26T12:35:08.024Z,4.40
2023-03-26T12:37:40.173Z,6.20
2023-03-26T12:40:27.527Z,6.07
2023-03-26T12:44:52.618Z,3.50
2023-03-26T12:45:46.071Z,5.77
2023-03-26T12:48:38.689Z,6.20
2023-03-26T12:51:13.979Z,7.43
2023-03-26T12:53:41.222Z,3.47
2023-03-26T12:56:20.118Z,5.00
2023-03-26T12:58:51.118Z,6.27
2023-03-26T13:01:30.720Z,7.10
2023-03-26T13:04:11.430Z,4.83
2023-03-26T13:06:59.457Z,6.70
2023-03-26T13:09:47.767Z,4.63
2023-03-26T13:12:20.804Z,4.07
2023-03-26T13:14:50.887Z,5.90
2023-03-26T13:17:26.081Z,3.73
2023-03-26T13:20:12.709Z,4.23
2023-03-26T13:22:51.896Z,5.50
2023-03-26T13:25:29.916Z,4.67
2023-03-26T13:28:09.141Z,4.30
2023-03-26T13:33:46.940Z,4.67
2023-03-26T13:36:22.543Z,8.50
2023-03-26T13:38:59.634Z,6.33
2023-03-26T13:41:36.949Z,5.67
2023-03-26T13:44:19.423Z,3.43
2023-03-26T13:46:55.146Z,3.70
2023-03-26T13:49:40.886Z,4.87
2023-03-26T13:52:11.728Z,7.00
2023-03-26T13:54:48.324Z,4.93
2023-03-26T13:57:41.506Z,5.70
2023-03-26T14:00:16.401Z,5.70
2023-03-26T14:02:44.636Z,3.10
2023-03-26T14:05:22.022Z,6.03
2023-03-26T14:08:26.746Z,8.57
2023-03-26T14:11:10.002Z,8.20
2023-03-26T14:13:48.699Z,7.37
2023-03-26T14:16:27.600Z,5.63
2023-03-26T14:19:27.660Z,3.90
2023-03-26T14:22:04.283Z,3.80
2023-03-26T14:24:41.094Z,5.77
2023-03-26T14:27:27.122Z,5.43
2023-03-26T14:30:13.035Z,5.53
2023-03-26T14:32:53.338Z,5.53
2023-03-26T14:35:37.433Z,5.60
2023-03-26T14:38:24.894Z,4.87
2023-03-26T14:40:52.131Z,3.23
2023-03-26T14:43:29.404Z,5.37
2023-03-26T14:46:15.684Z,6.67
2023-03-26T14:48:53.552Z,3.43
2023-03-26T14:51:45.730Z,4.20
2023-03-26T14:54:19.723Z,5.23
2023-03-26T14:57:10.440Z,5.80
2023-03-26T14:59:49.983Z,6.40
2023-03-26T15:02:24.052Z,6.77
2023-03-26T15:05:19.997Z,6.87
2023-03-26T15:08:08.572Z,9.37
2023-03-26T15:10:39.455Z,5.23
2023-03-26T15:13:32.481Z,4.40
2023-03-26T15:16:09.072Z,6.27
2023-03-26T15:18:48.580Z,6.07
2023-03-26T15:21:36.765Z,11.67
2023-03-26T15:24:04.656Z,7.47
2023-03-26T15:26:44.203Z,7.43
2023-03-26T15:29:11.590Z,9.07
2023-03-26T15:31:50.564Z,6.60
2023-03-26T15:34:30.548Z,8.83
2023-03-26T15:37:17.176Z,8.80
2023-03-26T15:39:59.475Z,6.67
2023-03-26T15:42:44.744Z,5.60
2023-03-26T15:45:42.630Z,3.67
2023-03-26T15:48:12.903Z,3.03
2023-03-26T15:50:45.739Z,3.03
2023-03-26T15:53:35.300Z,5.30
2023-03-26T15:56:22.051Z,6.87
2023-03-26T15:59:05.446Z,8.17
2023-03-26T16:01:43.124Z,3.33
2023-03-26T16:04:17.424Z,5.00
2023-03-26T16:06:50.573Z,2.93
2023-03-26T16:09:39.420Z,3.53
2023-03-26T16:12:12.682Z,3.90
2023-03-26T16:14:42.964Z,7.13
2023-03-26T16:17:14.538Z,6.00
2023-03-26T16:19:48.236Z,8.47
2023-03-26T16:22:35.489Z,13.10
2023-03-26T16:25:28.231Z,9.20
2023-03-26T16:28:16.399Z,13.63
2023-03-26T16:30:46.015Z,10.97
2023-03-26T16:33:15.884Z,9.70
2023-03-26T16:36:02.492Z,11.97
2023-03-26T16:38:50.357Z,9.80
2023-03-26T16:41:22.345Z,13.63
2023-03-26T16:43:52.635Z,11.67
2023-03-26T16:46:29.193Z,15.30
2023-03-26T16:49:08.894Z,19.43
2023-03-26T16:51:56.672Z,15.37
2023-03-26T16:54:26.200Z,14.80
2023-03-26T16:56:53.541Z,15.97
2023-03-26T16:59:37.945Z,17.30
2023-03-26T17:02:17.961Z,18.57
2023-03-26T17:04:48.449Z,19.47
2023-03-26T17:07:36.567Z,26.13
2023-03-26T17:10:10.837Z,22.10
2023-03-26T17:12:42.869Z,16.30
2023-03-26T17:15:13.284Z,12.17
2023-03-26T17:17:59.661Z,11.57
2023-03-26T17:20:55.932Z,11.37
2023-03-26T17:23:39.844Z,19.87
2023-03-26T17:26:12.995Z,20.57
2023-03-26T17:28:46.049Z,22.07
2023-03-26T17:31:19.303Z,17.73
2023-03-26T17:33:48.375Z,23.50
2023-03-26T17:36:18.586Z,26.37
2023-03-26T17:38:49.451Z,23.10
2023-03-26T17:41:36.906Z,19.37
2023-03-26T17:44:24.223Z,20.37
2023-03-26T17:46:52.313Z,24.60
2023-03-26T17:49:22.031Z,23.30
2023-03-26T17:51:52.355Z,19.43
2023-03-26T17:54:25.213Z,20.80
2023-03-26T17:56:53.782Z,32.33
2023-03-26T17:59:25.915Z,36.17
2023-03-26T18:01:55.772Z,40.07
2023-03-26T18:04:45.142Z,42.67
2023-03-26T18:07:16.669Z,43.50
2023-03-26T18:09:50.048Z,43.47
2023-03-26T18:12:23.238Z,51.03
2023-03-26T18:14:56.409Z,51.33
2023-03-26T18:17:24.752Z,73.87
2023-03-26T18:20:06.380Z,88.10
2023-03-26T18:22:34.210Z,78.97
2023-03-26T18:25:02.864Z,86.93
2023-03-26T18:27:36.841Z,105.30
2023-03-26T18:30:14.867Z,139.07
2023-03-26T18:32:50.876Z,207.37
2023-03-26T18:35:20.513Z,204.53
2023-03-26T18:37:49.276Z,176.80
2023-03-26T18:40:22.460Z,161.50
2023-03-26T18:42:55.336Z,163.83
2023-03-26T18:45:34.125Z,144.20
2023-03-26T18:48:13.274Z,148.07
2023-03-26T18:50:42.290Z,150.40
2023-03-26T18:53:15.413Z,167.07
2023-03-26T18:55:44.506Z,147.10
2023-03-26T18:58:30.733Z,129.33
2023-03-26T19:01:00.159Z,145.37
2023-03-26T19:03:27.585Z,129.60
2023-03-26T19:05:56.189Z,114.23
2023-03-26T19:08:24.551Z,120.23
2023-03-26T19:10:53.090Z,109.03
2023-03-26T19:13:23.557Z,109.77
2023-03-26T19:15:51.937Z,98.20
2023-03-26T19:18:20.796Z,97.13
2023-03-26T19:20:53.612Z,98.23
2023-03-26T19:23:22.202Z,113.87
2023-03-26T19:25:51.353Z,97.13
2023-03-26T19:28:24.058Z,92.17
2023-03-26T19:30:58.947Z,86.77
2023-03-26T19:33:33.537Z,84.50
2023-03-26T19:36:03.786Z,83.27
2023-03-26T19:38:38.322Z,91.93
2023-03-26T19:41:05.649Z,74.57
2023-03-26T19:43:32.866Z,76.13
2023-03-26T19:46:01.259Z,72.60
2023-03-26T19:48:46.151Z,79.03
2023-03-26T19:51:20.314Z,79.43
2023-03-26T19:53:49.649Z,77.83
2023-03-26T19:56:18.646Z,71.37
2023-03-26T19:58:46.149Z,79.80
2023-03-26T20:01:17.772Z,82.73
2023-03-26T20:03:47.079Z,80.07
2023-03-26T20:06:16.157Z,88.17
2023-03-26T20:08:43.884Z,96.67
2023-03-26T20:11:15.884Z,104.80
2023-03-26T20:13:43.126Z,122.43
2023-03-26T20:16:29.902Z,120.00
2023-03-26T20:18:58.010Z,113.67
2023-03-26T20:21:26.127Z,113.00
2023-03-26T20:23:53.711Z,122.30
2023-03-26T20:26:21.412Z,133.47
2023-03-26T20:28:52.883Z,147.93
2023-03-26T20:31:22.801Z,173.80
2023-03-26T20:33:50.914Z,168.97
2023-03-26T20:36:34.127Z,158.40
2023-03-26T20:39:08.497Z,160.37
2023-03-26T20:41:38.171Z,148.47
2023-03-26T20:44:07.090Z,141.63
2023-03-26T20:46:34.427Z,165.33
2023-03-26T20:49:01.647Z,189.63
2023-03-26T20:51:29.159Z,211.40
2023-03-26T20:53:56.894Z,210.23
2023-03-26T20:56:24.075Z,232.57
2023-03-26T20:59:09.701Z,221.63
2023-03-26T21:01:38.764Z,204.73
2023-03-26T21:04:06.672Z,196.77
2023-03-26T21:06:33.976Z,197.37
2023-03-26T21:09:01.350Z,182.20
2023-03-26T21:11:48.410Z,188.90
2023-03-26T21:14:15.813Z,176.37
2023-03-26T21:16:43.184Z,197.03
2023-03-26T21:19:11.148Z,183.80
2023-03-26T21:21:50.009Z,202.17
2023-03-26T21:24:26.037Z,207.23
2023-03-26T21:27:13.744Z,206.43
2023-03-26T21:29:41.196Z,155.03
2023-03-26T21:32:10.495Z,158.70
2023-03-26T21:34:42.014Z,134.73
2023-03-26T21:37:12.848Z,98.07
2023-03-26T21:39:42.805Z,43.20
2023-03-26T21:42:11.280Z,35.20
2023-03-26T21:44:38.819Z,24.33
2023-03-26T21:47:10.109Z,20.03
2023-03-26T21:49:38.551Z,24.70
2023-03-26T21:52:06.114Z,17.03
2023-03-26T21:54:33.637Z,16.20
2023-03-26T21:57:01.189Z,21.33
2023-03-26T21:59:34.169Z,20.10
2023-03-26T22:02:16.418Z,15.43
2023-03-26T22:04:47.002Z,13.90
2023-03-26T22:07:23.873Z,17.70
2023-03-26T22:09:52.630Z,16.50
2023-03-26T22:12:19.942Z,16.77
2023-03-26T22:14:47.708Z,16.17
2023-03-26T22:17:15.498Z,14.23
2023-03-26T22:19:43.693Z,15.97
2023-03-26T22:22:10.948Z,17.37
2023-03-26T22:24:38.571Z,14.50
2023-03-26T22:27:07.220Z,14.83
2023-03-26T22:29:34.406Z,20.97
2023-03-26T22:32:03.510Z,21.27
2023-03-26T22:34:31.772Z,19.80
2023-03-26T22:36:59.091Z,11.87
2023-03-26T22:39:27.182Z,17.03
2023-03-26T22:41:54.511Z,14.67
2023-03-26T22:44:21.949Z,22.77
2023-03-26T22:46:51.288Z,18.80
2023-03-26T22:49:19.091Z,13.70
2023-03-26T22:51:46.821Z,16.17
2023-03-26T22:54:14.699Z,15.80
2023-03-26T22:56:41.962Z,22.80
2023-03-26T22:59:09.177Z,15.40
2023-03-26T23:01:36.417Z,19.43
2023-03-26T23:04:03.709Z,14.63
2023-03-26T23:06:32.045Z,15.90
2023-03-26T23:08:59.459Z,15.80
2023-03-26T23:11:26.747Z,13.67
2023-03-26T23:13:53.943Z,14.73
2023-03-26T23:16:21.794Z,18.00
2023-03-26T23:18:49.317Z,20.90
2023-03-26T23:21:18.519Z,14.60
2023-03-26T23:23:46.116Z,15.70
2023-03-26T23:26:14.883Z,22.03
2023-03-26T23:28:42.151Z,22.43
2023-03-26T23:31:10.456Z,16.47
2023-03-26T23:33:38.995Z,17.40
2023-03-26T23:36:08.860Z,15.27
2023-03-26T23:38:43.008Z,15.93
2023-03-26T23:41:15.264Z,20.97
2023-03-26T23:43:53.555Z,17.73
2023-03-26T23:46:36.017Z,16.33
2023-03-26T23:49:03.765Z,14.20
2023-03-26T23:51:31.692Z,21.93
2023-03-26T23:53:59.718Z,19.10
2023-03-26T23:56:30.341Z,21.23
2023-03-26T23:58:58.485Z,16.67
